Terminal Aerodrome Forecast
Issued by NWS

Home | Current Version | Previous Version | Text Only | Print | Product List | Glossary On
Versions: 1 2 3 4 5 6 7 8 9 10 11 12 13 14 15
000
FTUS44 KTSA 251120
TAFMLC
TAF
KMLC 251120Z 2512/2612 18012G22KT P6SM SCT250
     FM251400 17015G25KT P6SM SCT025 SCT250
     FM260100 18011G18KT P6SM OVC100
      TEMPO 2606/2610 VRB20G40KT 2SM TSRA BKN020CB
     FM261000 24009KT 4SM -SHRA OVC015=

USA.gov is the U.S. government's official web portal to all federal, state and local government web resources and services.